LGX77S LFRS-LIBD
Flight info
| Callsign | LGX77S |
|---|---|
| Flight time | N/A |
| Altitude | 25000 |
| Route | LUGEN UM184 TUPAR/N0444F370 DCT PECNO DCT NAKET/N0441F390 DCT ROMAM/N0440F380 UL55 NEDRU/N0441F390 UL55 RILIP DCT KUMIN DCT EROVI DCT TUFTE DCT EKMUR |
| Aircraft | A320/M-SDE3FGHIRWY/LB1 |
Departure
| Time | N/A |
|---|---|
| Airport | Nantes Atlantique Airport (LFRS) |
Arrival
| Time | 2026-04-29 17:52 |
|---|---|
| Airport | Bari Karol Wojtyła International Airport (LIBD) |
| Time | Latitude | Longitude | Altitude | Speed | Heading |
|---|---|---|---|---|---|
| 2026-04-29 16:03 | 45.84248 | 2.32925 | 38971 ft | 452 kts | 114° |
| 2026-04-29 16:04 | 45.83107 | 2.37128 | 38974 ft | 452 kts | 114° |
| 2026-04-29 16:04 | 45.80819 | 2.45541 | 38974 ft | 453 kts | 114° |
| 2026-04-29 16:05 | 45.78526 | 2.53940 | 38982 ft | 453 kts | 114° |
| 2026-04-29 16:05 | 45.76222 | 2.62338 | 38975 ft | 453 kts | 114° |
| 2026-04-29 16:06 | 45.73910 | 2.70735 | 38980 ft | 453 kts | 114° |
| 2026-04-29 16:06 | 45.71594 | 2.79135 | 38980 ft | 453 kts | 114° |
| 2026-04-29 16:07 | 45.69288 | 2.87464 | 38989 ft | 453 kts | 114° |
| 2026-04-29 16:07 | 45.66950 | 2.95836 | 38993 ft | 453 kts | 114° |
| 2026-04-29 16:08 | 45.64609 | 3.04204 | 38989 ft | 453 kts | 114° |
| 2026-04-29 16:08 | 45.62272 | 3.12569 | 38988 ft | 453 kts | 114° |
| 2026-04-29 16:09 | 45.59920 | 3.20951 | 38984 ft | 454 kts | 114° |
| 2026-04-29 16:09 | 45.57565 | 3.29319 | 38980 ft | 454 kts | 114° |
| 2026-04-29 16:10 | 45.55202 | 3.37674 | 38990 ft | 455 kts | 114° |
| 2026-04-29 16:10 | 45.52828 | 3.46040 | 38998 ft | 455 kts | 114° |
| 2026-04-29 16:11 | 45.50847 | 3.52995 | 38996 ft | 455 kts | 114° |
| 2026-04-29 16:11 | 45.48064 | 3.62711 | 39012 ft | 455 kts | 114° |
| 2026-04-29 16:12 | 45.46060 | 3.69696 | 39009 ft | 454 kts | 114° |
| 2026-04-29 16:12 | 45.43668 | 3.78025 | 39015 ft | 455 kts | 114° |
| 2026-04-29 16:13 | 45.41285 | 3.86300 | 39014 ft | 454 kts | 114° |
| 2026-04-29 16:13 | 45.38876 | 3.94624 | 39013 ft | 455 kts | 114° |
| 2026-04-29 16:14 | 45.36454 | 4.02950 | 39019 ft | 455 kts | 114° |
| 2026-04-29 16:14 | 45.34030 | 4.11268 | 39011 ft | 455 kts | 114° |
| 2026-04-29 16:15 | 45.31601 | 4.19566 | 39016 ft | 455 kts | 114° |
| 2026-04-29 16:15 | 45.29673 | 4.28161 | 39018 ft | 457 kts | 108° |
| 2026-04-29 16:16 | 45.27814 | 4.36794 | 39015 ft | 457 kts | 109° |
| 2026-04-29 16:16 | 45.25939 | 4.45418 | 39015 ft | 458 kts | 109° |
| 2026-04-29 16:17 | 45.24055 | 4.54055 | 39024 ft | 458 kts | 109° |
| 2026-04-29 16:17 | 45.22170 | 4.62687 | 39031 ft | 458 kts | 109° |
| 2026-04-29 16:18 | 45.20290 | 4.71260 | 39021 ft | 459 kts | 109° |
| 2026-04-29 16:18 | 45.18381 | 4.79950 | 39010 ft | 459 kts | 109° |
| 2026-04-29 16:19 | 45.16477 | 4.88542 | 39017 ft | 459 kts | 109° |
| 2026-04-29 16:19 | 45.14549 | 4.97182 | 39021 ft | 460 kts | 109° |
| 2026-04-29 16:20 | 45.12617 | 5.05819 | 39016 ft | 461 kts | 109° |
| 2026-04-29 16:20 | 45.10719 | 5.14498 | 39011 ft | 462 kts | 104° |
| 2026-04-29 16:21 | 45.09994 | 5.23544 | 39027 ft | 464 kts | 93° |
| 2026-04-29 16:21 | 45.09652 | 5.32674 | 39030 ft | 464 kts | 94° |
| 2026-04-29 16:22 | 45.09278 | 5.41801 | 39028 ft | 465 kts | 94° |
| 2026-04-29 16:22 | 45.08899 | 5.50945 | 39029 ft | 466 kts | 93° |
| 2026-04-29 16:23 | 45.08520 | 5.60038 | 39028 ft | 466 kts | 94° |
| 2026-04-29 16:23 | 45.08139 | 5.69209 | 39042 ft | 466 kts | 94° |
| 2026-04-29 16:24 | 45.07750 | 5.78373 | 39044 ft | 467 kts | 94° |
| 2026-04-29 16:24 | 45.07297 | 5.87549 | 39041 ft | 468 kts | 95° |
| 2026-04-29 16:25 | 45.06667 | 5.96724 | 39042 ft | 469 kts | 96° |
| 2026-04-29 16:25 | 45.05986 | 6.05900 | 39059 ft | 470 kts | 96° |
| 2026-04-29 16:26 | 45.05341 | 6.15087 | 39077 ft | 470 kts | 95° |
| 2026-04-29 16:26 | 45.04713 | 6.24278 | 39069 ft | 472 kts | 95° |
| 2026-04-29 16:27 | 45.04078 | 6.33544 | 39073 ft | 472 kts | 95° |
| 2026-04-29 16:27 | 45.03435 | 6.42788 | 39073 ft | 472 kts | 95° |
| 2026-04-29 16:28 | 45.02782 | 6.52033 | 39090 ft | 473 kts | 95° |
| 2026-04-29 16:28 | 45.02115 | 6.61308 | 39097 ft | 474 kts | 96° |
| 2026-04-29 16:29 | 45.01453 | 6.70539 | 39101 ft | 474 kts | 95° |
| 2026-04-29 16:29 | 45.00782 | 6.79831 | 39117 ft | 475 kts | 96° |
| 2026-04-29 16:30 | 45.00097 | 6.89128 | 39136 ft | 475 kts | 96° |
| 2026-04-29 16:30 | 44.99405 | 6.98417 | 39124 ft | 476 kts | 96° |
| 2026-04-29 16:31 | 44.98706 | 7.07718 | 39123 ft | 476 kts | 96° |
| 2026-04-29 16:31 | 44.98000 | 7.17014 | 39122 ft | 476 kts | 96° |
| 2026-04-29 16:32 | 44.97279 | 7.26323 | 39115 ft | 477 kts | 96° |
| 2026-04-29 16:32 | 44.96124 | 7.35520 | 39103 ft | 476 kts | 109° |
| 2026-04-29 16:33 | 44.92022 | 7.48244 | 39105 ft | 475 kts | 117° |
| 2026-04-29 16:33 | 44.89135 | 7.56641 | 39105 ft | 475 kts | 117° |
| 2026-04-29 16:34 | 44.86264 | 7.64967 | 39095 ft | 475 kts | 117° |
| 2026-04-29 16:34 | 44.83358 | 7.73352 | 39091 ft | 476 kts | 117° |
| 2026-04-29 16:35 | 44.80441 | 7.81750 | 39081 ft | 476 kts | 117° |
| 2026-04-29 16:35 | 44.77539 | 7.90071 | 39088 ft | 476 kts | 117° |
| 2026-04-29 16:36 | 44.74611 | 7.98433 | 39085 ft | 476 kts | 117° |
| 2026-04-29 16:36 | 44.71677 | 8.06800 | 39083 ft | 477 kts | 117° |
| 2026-04-29 16:37 | 44.68740 | 8.15158 | 39074 ft | 477 kts | 117° |
| 2026-04-29 16:37 | 44.66295 | 8.22096 | 39080 ft | 476 kts | 117° |
| 2026-04-29 16:38 | 44.62849 | 8.31830 | 39074 ft | 476 kts | 117° |
| 2026-04-29 16:38 | 44.59906 | 8.40109 | 39070 ft | 476 kts | 117° |
| 2026-04-29 16:39 | 44.56949 | 8.48414 | 39065 ft | 476 kts | 117° |
| 2026-04-29 16:39 | 44.53991 | 8.56707 | 39053 ft | 476 kts | 117° |
| 2026-04-29 16:40 | 44.51021 | 8.64994 | 39047 ft | 476 kts | 117° |
| 2026-04-29 16:40 | 44.48045 | 8.73279 | 39043 ft | 476 kts | 117° |
| 2026-04-29 16:41 | 44.45054 | 8.81566 | 39039 ft | 476 kts | 117° |
| 2026-04-29 16:41 | 44.42058 | 8.89830 | 39040 ft | 476 kts | 117° |
| 2026-04-29 16:42 | 44.39062 | 8.98090 | 39038 ft | 476 kts | 117° |
| 2026-04-29 16:42 | 44.36064 | 9.06347 | 39035 ft | 476 kts | 118° |
| 2026-04-29 16:43 | 44.33069 | 9.14564 | 39036 ft | 476 kts | 118° |
| 2026-04-29 16:43 | 44.30042 | 9.22823 | 39034 ft | 476 kts | 118° |
| 2026-04-29 16:44 | 44.27042 | 9.30999 | 39033 ft | 476 kts | 118° |
| 2026-04-29 16:44 | 44.24020 | 9.39230 | 39033 ft | 476 kts | 118° |
| 2026-04-29 16:45 | 44.20995 | 9.47435 | 39024 ft | 476 kts | 118° |
| 2026-04-29 16:45 | 44.17953 | 9.55626 | 39033 ft | 476 kts | 118° |
| 2026-04-29 16:46 | 44.14928 | 9.63762 | 39031 ft | 475 kts | 118° |
| 2026-04-29 16:46 | 44.11883 | 9.71936 | 39032 ft | 476 kts | 118° |
| 2026-04-29 16:47 | 44.08833 | 9.80102 | 39035 ft | 475 kts | 118° |
| 2026-04-29 16:47 | 44.05776 | 9.88253 | 39036 ft | 476 kts | 118° |
| 2026-04-29 16:48 | 44.02708 | 9.96408 | 39035 ft | 476 kts | 118° |
| 2026-04-29 16:48 | 43.99639 | 10.04558 | 39034 ft | 476 kts | 118° |
| 2026-04-29 16:49 | 43.96566 | 10.12706 | 39030 ft | 476 kts | 118° |
| 2026-04-29 16:49 | 43.93483 | 10.20843 | 39058 ft | 476 kts | 118° |
| 2026-04-29 16:50 | 43.90394 | 10.28964 | 39074 ft | 476 kts | 118° |
| 2026-04-29 16:50 | 43.87313 | 10.37093 | 39063 ft | 476 kts | 118° |
| 2026-04-29 16:51 | 43.84331 | 10.45279 | 39063 ft | 476 kts | 117° |
| 2026-04-29 16:51 | 43.81378 | 10.53495 | 39053 ft | 476 kts | 117° |
| 2026-04-29 16:52 | 43.78399 | 10.61691 | 39050 ft | 477 kts | 117° |
| 2026-04-29 16:52 | 43.75388 | 10.69866 | 39057 ft | 477 kts | 118° |
| 2026-04-29 16:53 | 43.72384 | 10.77989 | 39052 ft | 477 kts | 117° |
| 2026-04-29 16:53 | 43.69348 | 10.86225 | 39031 ft | 477 kts | 118° |
| 2026-04-29 16:54 | 43.66329 | 10.94382 | 39027 ft | 478 kts | 118° |
| 2026-04-29 16:54 | 43.63298 | 11.02550 | 39032 ft | 477 kts | 118° |
| 2026-04-29 16:55 | 43.60265 | 11.10702 | 39035 ft | 477 kts | 118° |
| 2026-04-29 16:55 | 43.57240 | 11.18783 | 39050 ft | 477 kts | 118° |
| 2026-04-29 16:56 | 43.54183 | 11.26931 | 39038 ft | 477 kts | 118° |
| 2026-04-29 16:56 | 43.51133 | 11.35058 | 39045 ft | 478 kts | 118° |
| 2026-04-29 16:57 | 43.48072 | 11.43182 | 39041 ft | 478 kts | 118° |
| 2026-04-29 16:57 | 43.45002 | 11.51298 | 39042 ft | 478 kts | 118° |
| 2026-04-29 16:58 | 43.42441 | 11.58043 | 39027 ft | 477 kts | 118° |
| 2026-04-29 16:58 | 43.39377 | 11.66105 | 39041 ft | 477 kts | 118° |
| 2026-04-29 16:59 | 43.36284 | 11.74224 | 39044 ft | 477 kts | 118° |
| 2026-04-29 16:59 | 43.33220 | 11.82243 | 39037 ft | 477 kts | 118° |
| 2026-04-29 17:00 | 43.30124 | 11.90322 | 39046 ft | 478 kts | 118° |
| 2026-04-29 17:00 | 43.27021 | 11.98394 | 39047 ft | 478 kts | 118° |
| 2026-04-29 17:01 | 43.23912 | 12.06466 | 39053 ft | 479 kts | 118° |
| 2026-04-29 17:01 | 43.20797 | 12.14535 | 39051 ft | 479 kts | 118° |
| 2026-04-29 17:02 | 43.17670 | 12.22591 | 39051 ft | 479 kts | 119° |
| 2026-04-29 17:02 | 43.14541 | 12.30627 | 39046 ft | 478 kts | 119° |
| 2026-04-29 17:03 | 43.11400 | 12.38661 | 39047 ft | 478 kts | 119° |
| 2026-04-29 17:03 | 43.08265 | 12.46680 | 39047 ft | 478 kts | 119° |
| 2026-04-29 17:04 | 43.05135 | 12.54695 | 39045 ft | 478 kts | 119° |
| 2026-04-29 17:04 | 43.01991 | 12.62707 | 39044 ft | 478 kts | 119° |
| 2026-04-29 17:05 | 42.98850 | 12.70669 | 39047 ft | 478 kts | 119° |
| 2026-04-29 17:05 | 42.95678 | 12.78676 | 39057 ft | 478 kts | 119° |
| 2026-04-29 17:06 | 42.92507 | 12.86675 | 39056 ft | 479 kts | 119° |
| 2026-04-29 17:06 | 42.89332 | 12.94665 | 39045 ft | 479 kts | 119° |
| 2026-04-29 17:07 | 42.86154 | 13.02643 | 39065 ft | 479 kts | 119° |
| 2026-04-29 17:07 | 42.82961 | 13.10625 | 39070 ft | 480 kts | 120° |
| 2026-04-29 17:08 | 42.79780 | 13.18542 | 39078 ft | 480 kts | 119° |
| 2026-04-29 17:08 | 42.76577 | 13.26520 | 39076 ft | 480 kts | 120° |
| 2026-04-29 17:09 | 42.73366 | 13.34508 | 39074 ft | 481 kts | 120° |
| 2026-04-29 17:09 | 42.70142 | 13.42474 | 39063 ft | 481 kts | 120° |
| 2026-04-29 17:10 | 42.66914 | 13.50451 | 39068 ft | 482 kts | 119° |
| 2026-04-29 17:10 | 42.63749 | 13.58475 | 39073 ft | 482 kts | 118° |
| 2026-04-29 17:11 | 42.60602 | 13.66496 | 39062 ft | 481 kts | 119° |
| 2026-04-29 17:11 | 42.57431 | 13.74501 | 39066 ft | 481 kts | 119° |
| 2026-04-29 17:12 | 42.54262 | 13.82433 | 39058 ft | 481 kts | 119° |
| 2026-04-29 17:12 | 42.51582 | 13.89122 | 39066 ft | 481 kts | 119° |
| 2026-04-29 17:13 | 42.47871 | 13.98404 | 39060 ft | 481 kts | 119° |
| 2026-04-29 17:13 | 42.44670 | 14.06366 | 39054 ft | 481 kts | 119° |
| 2026-04-29 17:14 | 42.41460 | 14.14317 | 39055 ft | 481 kts | 119° |
| 2026-04-29 17:14 | 42.38250 | 14.22263 | 39056 ft | 481 kts | 119° |
| 2026-04-29 17:15 | 42.35034 | 14.30195 | 39051 ft | 481 kts | 120° |
| 2026-04-29 17:15 | 42.31809 | 14.38138 | 39032 ft | 482 kts | 119° |
| 2026-04-29 17:16 | 42.28589 | 14.46065 | 39042 ft | 481 kts | 119° |
| 2026-04-29 17:16 | 42.25346 | 14.53974 | 39038 ft | 481 kts | 120° |
| 2026-04-29 17:17 | 42.22110 | 14.61875 | 39038 ft | 481 kts | 120° |
| 2026-04-29 17:17 | 42.18899 | 14.69726 | 39039 ft | 481 kts | 120° |
| 2026-04-29 17:18 | 42.15645 | 14.77608 | 39039 ft | 481 kts | 120° |
| 2026-04-29 17:18 | 42.12393 | 14.85475 | 39035 ft | 480 kts | 120° |
| 2026-04-29 17:19 | 42.09135 | 14.93346 | 39038 ft | 480 kts | 120° |
| 2026-04-29 17:19 | 42.05877 | 15.01199 | 39035 ft | 480 kts | 120° |
| 2026-04-29 17:20 | 42.02606 | 15.09048 | 39029 ft | 480 kts | 120° |
| 2026-04-29 17:20 | 41.99344 | 15.16870 | 39015 ft | 479 kts | 120° |
| 2026-04-29 17:21 | 41.96105 | 15.24628 | 39019 ft | 479 kts | 120° |
| 2026-04-29 17:21 | 41.92836 | 15.32431 | 39026 ft | 479 kts | 120° |
| 2026-04-29 17:22 | 41.89560 | 15.40225 | 39030 ft | 479 kts | 120° |
| 2026-04-29 17:22 | 41.87915 | 15.44119 | 38857 ft | 479 kts | 120° |
| 2026-04-29 17:22 | 41.86270 | 15.48007 | 38136 ft | 481 kts | 120° |
| 2026-04-29 17:23 | 41.84618 | 15.51913 | 37413 ft | 480 kts | 121° |
| 2026-04-29 17:23 | 41.82976 | 15.55804 | 36673 ft | 479 kts | 121° |
| 2026-04-29 17:23 | 41.81327 | 15.59707 | 35775 ft | 482 kts | 121° |
| 2026-04-29 17:23 | 41.79663 | 15.63639 | 34817 ft | 487 kts | 121° |
| 2026-04-29 17:24 | 41.77985 | 15.67590 | 33881 ft | 489 kts | 121° |
| 2026-04-29 17:24 | 41.76288 | 15.71577 | 32664 ft | 494 kts | 121° |
| 2026-04-29 17:24 | 41.74576 | 15.75589 | 31491 ft | 498 kts | 121° |
| 2026-04-29 17:24 | 41.72857 | 15.79618 | 30338 ft | 500 kts | 121° |
| 2026-04-29 17:25 | 41.71130 | 15.83666 | 29128 ft | 500 kts | 121° |
| 2026-04-29 17:25 | 41.69425 | 15.87659 | 28557 ft | 487 kts | 121° |
| 2026-04-29 17:25 | 41.67752 | 15.91573 | 27749 ft | 482 kts | 121° |
| 2026-04-29 17:25 | 41.66097 | 15.95433 | 27003 ft | 476 kts | 121° |
| 2026-04-29 17:26 | 41.64458 | 15.99252 | 26253 ft | 471 kts | 121° |
| 2026-04-29 17:26 | 41.62836 | 16.03025 | 25524 ft | 467 kts | 121° |
| 2026-04-29 17:26 | 41.61217 | 16.06775 | 24799 ft | 463 kts | 121° |
| 2026-04-29 17:26 | 41.59615 | 16.10487 | 24085 ft | 459 kts | 121° |
| 2026-04-29 17:27 | 41.58025 | 16.14173 | 23353 ft | 456 kts | 121° |
| 2026-04-29 17:27 | 41.56446 | 16.17824 | 22646 ft | 451 kts | 121° |
| 2026-04-29 17:27 | 41.54888 | 16.21424 | 22044 ft | 444 kts | 121° |
| 2026-04-29 17:27 | 41.53365 | 16.24939 | 21454 ft | 439 kts | 121° |
| 2026-04-29 17:28 | 41.51841 | 16.28449 | 20881 ft | 433 kts | 121° |
| 2026-04-29 17:28 | 41.50335 | 16.31911 | 20318 ft | 429 kts | 121° |
| 2026-04-29 17:28 | 41.48847 | 16.35335 | 19772 ft | 425 kts | 121° |
| 2026-04-29 17:28 | 41.47369 | 16.38735 | 19215 ft | 422 kts | 121° |
| 2026-04-29 17:29 | 41.45900 | 16.42105 | 18646 ft | 419 kts | 121° |
| 2026-04-29 17:29 | 41.44441 | 16.45456 | 18052 ft | 417 kts | 121° |
| 2026-04-29 17:29 | 41.42905 | 16.48716 | 17451 ft | 413 kts | 128° |
| 2026-04-29 17:29 | 41.41662 | 16.50610 | 17063 ft | 409 kts | 137° |
| 2026-04-29 17:30 | 41.38648 | 16.53586 | 16291 ft | 400 kts | 154° |
| 2026-04-29 17:30 | 41.36111 | 16.55037 | 15788 ft | 393 kts | 162° |
| 2026-04-29 17:30 | 41.33603 | 16.56288 | 15668 ft | 378 kts | 162° |
| 2026-04-29 17:30 | 41.31188 | 16.57501 | 15538 ft | 364 kts | 161° |
| 2026-04-29 17:31 | 41.28867 | 16.58675 | 15409 ft | 351 kts | 161° |
| 2026-04-29 17:31 | 41.26621 | 16.59811 | 15291 ft | 339 kts | 162° |
| 2026-04-29 17:31 | 41.24450 | 16.60905 | 15166 ft | 329 kts | 162° |
| 2026-04-29 17:31 | 41.22340 | 16.61963 | 15044 ft | 319 kts | 162° |
| 2026-04-29 17:32 | 41.20297 | 16.62985 | 14919 ft | 309 kts | 162° |
| 2026-04-29 17:32 | 41.18304 | 16.63977 | 14697 ft | 302 kts | 162° |
| 2026-04-29 17:32 | 41.16349 | 16.64946 | 14154 ft | 299 kts | 162° |
| 2026-04-29 17:32 | 41.14405 | 16.65908 | 13593 ft | 297 kts | 162° |
| 2026-04-29 17:33 | 41.12488 | 16.66858 | 13071 ft | 293 kts | 162° |
| 2026-04-29 17:33 | 41.10594 | 16.67797 | 12655 ft | 295 kts | 162° |
| 2026-04-29 17:33 | 41.08682 | 16.68745 | 12316 ft | 294 kts | 162° |
| 2026-04-29 17:33 | 41.06770 | 16.69695 | 12037 ft | 291 kts | 162° |
| 2026-04-29 17:34 | 41.04850 | 16.70426 | 11653 ft | 282 kts | 178° |
| 2026-04-29 17:34 | 41.02957 | 16.70091 | 11102 ft | 272 kts | 206° |
| 2026-04-29 17:34 | 41.01447 | 16.68725 | 10879 ft | 261 kts | 231° |
| 2026-04-29 17:34 | 41.00501 | 16.66699 | 10849 ft | 260 kts | 251° |
| 2026-04-29 17:35 | 40.99639 | 16.63712 | 10784 ft | 260 kts | 251° |
| 2026-04-29 17:35 | 40.98578 | 16.59994 | 10663 ft | 259 kts | 251° |
| 2026-04-29 17:35 | 40.97939 | 16.57755 | 10588 ft | 259 kts | 252° |
| 2026-04-29 17:36 | 40.97305 | 16.55525 | 10525 ft | 259 kts | 252° |
| 2026-04-29 17:36 | 40.96678 | 16.53326 | 10450 ft | 249 kts | 251° |
| 2026-04-29 17:36 | 40.96085 | 16.51256 | 10379 ft | 238 kts | 252° |
| 2026-04-29 17:36 | 40.95512 | 16.49262 | 10317 ft | 226 kts | 252° |
| 2026-04-29 17:37 | 40.94969 | 16.47372 | 10258 ft | 214 kts | 252° |
| 2026-04-29 17:37 | 40.94453 | 16.45574 | 10203 ft | 205 kts | 252° |
| 2026-04-29 17:37 | 40.93952 | 16.43821 | 10150 ft | 202 kts | 252° |
| 2026-04-29 17:37 | 40.93455 | 16.42084 | 10087 ft | 201 kts | 252° |
| 2026-04-29 17:38 | 40.92959 | 16.40350 | 10044 ft | 201 kts | 252° |
| 2026-04-29 17:38 | 40.92460 | 16.38620 | 9986 ft | 201 kts | 252° |
| 2026-04-29 17:38 | 40.91961 | 16.36896 | 9931 ft | 201 kts | 252° |
| 2026-04-29 17:38 | 40.91464 | 16.35175 | 9873 ft | 200 kts | 252° |
| 2026-04-29 17:39 | 40.90971 | 16.33462 | 9821 ft | 199 kts | 252° |
| 2026-04-29 17:39 | 40.90483 | 16.31759 | 9767 ft | 198 kts | 252° |
| 2026-04-29 17:39 | 40.89998 | 16.30057 | 9707 ft | 198 kts | 252° |
| 2026-04-29 17:39 | 40.89509 | 16.28359 | 9650 ft | 198 kts | 252° |
| 2026-04-29 17:40 | 40.89022 | 16.26660 | 9593 ft | 198 kts | 252° |
| 2026-04-29 17:40 | 40.88539 | 16.24983 | 9528 ft | 198 kts | 252° |
| 2026-04-29 17:40 | 40.88098 | 16.23270 | 9478 ft | 196 kts | 264° |
| 2026-04-29 17:40 | 40.88200 | 16.21513 | 9424 ft | 193 kts | 290° |
| 2026-04-29 17:41 | 40.88934 | 16.20027 | 9363 ft | 195 kts | 317° |
| 2026-04-29 17:41 | 40.90125 | 16.19150 | 9313 ft | 199 kts | 336° |
| 2026-04-29 17:41 | 40.90988 | 16.18721 | 9265 ft | 200 kts | 335° |
| 2026-04-29 17:41 | 40.92727 | 16.17844 | 9171 ft | 200 kts | 335° |
| 2026-04-29 17:42 | 40.93587 | 16.17411 | 9142 ft | 200 kts | 335° |
| 2026-04-29 17:42 | 40.94933 | 16.16926 | 9070 ft | 203 kts | 355° |
| 2026-04-29 17:42 | 40.96325 | 16.17339 | 9010 ft | 212 kts | 25° |
| 2026-04-29 17:42 | 40.97420 | 16.18680 | 8693 ft | 223 kts | 59° |
| 2026-04-29 17:43 | 40.98010 | 16.20603 | 8333 ft | 228 kts | 68° |
| 2026-04-29 17:43 | 40.98569 | 16.22585 | 7982 ft | 232 kts | 68° |
| 2026-04-29 17:43 | 40.99142 | 16.24591 | 7636 ft | 234 kts | 68° |
| 2026-04-29 17:43 | 40.99722 | 16.26614 | 7291 ft | 237 kts | 68° |
| 2026-04-29 17:44 | 41.00309 | 16.28656 | 6965 ft | 238 kts | 68° |
| 2026-04-29 17:44 | 41.00900 | 16.30709 | 6632 ft | 239 kts | 68° |
| 2026-04-29 17:44 | 41.01486 | 16.32740 | 6306 ft | 240 kts | 68° |
| 2026-04-29 17:44 | 41.02090 | 16.34833 | 5962 ft | 240 kts | 68° |
| 2026-04-29 17:45 | 41.02670 | 16.36879 | 5622 ft | 240 kts | 68° |
| 2026-04-29 17:45 | 41.03261 | 16.38949 | 5306 ft | 240 kts | 68° |
| 2026-04-29 17:45 | 41.03862 | 16.41040 | 4974 ft | 240 kts | 68° |
| 2026-04-29 17:45 | 41.04446 | 16.43076 | 4629 ft | 239 kts | 69° |
| 2026-04-29 17:46 | 41.05037 | 16.45133 | 4281 ft | 239 kts | 69° |
| 2026-04-29 17:46 | 41.05626 | 16.47187 | 3945 ft | 237 kts | 69° |
| 2026-04-29 17:46 | 41.06193 | 16.49168 | 3746 ft | 220 kts | 70° |
| 2026-04-29 17:46 | 41.06716 | 16.50994 | 3549 ft | 205 kts | 70° |
| 2026-04-29 17:47 | 41.07199 | 16.52683 | 3465 ft | 187 kts | 70° |
| 2026-04-29 17:47 | 41.07642 | 16.54230 | 3270 ft | 173 kts | 71° |
| 2026-04-29 17:47 | 41.08055 | 16.55677 | 3067 ft | 163 kts | 71° |
| 2026-04-29 17:47 | 41.08443 | 16.57034 | 2854 ft | 152 kts | 72° |
| 2026-04-29 17:48 | 41.08808 | 16.58313 | 2680 ft | 144 kts | 71° |
| 2026-04-29 17:48 | 41.09156 | 16.59536 | 2474 ft | 142 kts | 72° |
| 2026-04-29 17:48 | 41.09503 | 16.60753 | 2285 ft | 140 kts | 71° |
| 2026-04-29 17:48 | 41.09848 | 16.61962 | 2097 ft | 140 kts | 72° |
| 2026-04-29 17:49 | 41.10191 | 16.63169 | 1914 ft | 139 kts | 72° |
| 2026-04-29 17:49 | 41.10535 | 16.64376 | 1724 ft | 140 kts | 72° |
| 2026-04-29 17:49 | 41.10876 | 16.65575 | 1542 ft | 139 kts | 71° |
| 2026-04-29 17:49 | 41.11215 | 16.66766 | 1362 ft | 137 kts | 71° |
| 2026-04-29 17:50 | 41.11550 | 16.67944 | 1177 ft | 136 kts | 71° |
| 2026-04-29 17:50 | 41.11879 | 16.69101 | 997 ft | 132 kts | 70° |
| 2026-04-29 17:50 | 41.12201 | 16.70237 | 824 ft | 131 kts | 71° |
| 2026-04-29 17:50 | 41.12519 | 16.71356 | 659 ft | 130 kts | 70° |
| 2026-04-29 17:51 | 41.12842 | 16.72469 | 446 ft | 128 kts | 70° |
| 2026-04-29 17:51 | 41.13149 | 16.73568 | 274 ft | 127 kts | 69° |
| 2026-04-29 17:51 | 41.13452 | 16.74651 | 144 ft | 118 kts | 69° |
| 2026-04-29 17:51 | 41.13677 | 16.75452 | 140 ft | 68 kts | 70° |
| 2026-04-29 17:52 | 41.13815 | 16.75935 | 137 ft | 52 kts | 69° |
| 2026-04-29 17:52 | 41.13899 | 16.76227 | 130 ft | 48 kts | 69° |
| 2026-04-29 17:52 | 41.14003 | 16.76601 | 122 ft | 12 kts | 86° |
| 2026-04-29 17:52 | 41.13993 | 16.76653 | 123 ft | 1 kts | 111° |
| 2026-04-29 17:53 | 41.13991 | 16.76660 | 124 ft | 0 kts | 112° |
| 2026-04-29 17:54 | 41.13988 | 16.76670 | 124 ft | 3 kts | 113° |
| 2026-04-29 17:54 | 41.13970 | 16.76719 | 125 ft | 9 kts | 115° |
| 2026-04-29 17:54 | 41.13921 | 16.76814 | 124 ft | 15 kts | 155° |
| 2026-04-29 17:55 | 41.13843 | 16.76766 | 125 ft | 10 kts | 191° |
| 2026-04-29 17:55 | 41.13791 | 16.76792 | 132 ft | 12 kts | 141° |
| 2026-04-29 17:55 | 41.13771 | 16.76879 | 132 ft | 0 kts | 79° |
| 2026-04-29 17:56 | 41.13774 | 16.76881 | 132 ft | 1 kts | 50° |
| 2026-04-29 17:56 | 41.13795 | 16.76872 | 128 ft | 5 kts | 350° |
| 2026-04-29 17:56 | 41.13812 | 16.76876 | 125 ft | 0 kts | 14° |